createdAt,value
2018-06-16T00:00:07.719Z,19.23
2018-06-16T00:01:17.472Z,19.17
2018-06-16T00:02:27.447Z,19.19
2018-06-16T00:03:36.917Z,19.19
2018-06-16T00:04:46.891Z,19.17
2018-06-16T00:05:56.920Z,19.15
2018-06-16T00:07:06.981Z,19.16
2018-06-16T00:08:16.945Z,19.15
2018-06-16T00:09:26.914Z,19.22
2018-06-16T00:10:36.899Z,19.17
2018-06-16T00:11:46.862Z,19.23
2018-06-16T00:12:56.564Z,19.23
2018-06-16T00:14:06.526Z,19.22
2018-06-16T00:15:16.490Z,19.26
2018-06-16T00:16:26.457Z,19.22
2018-06-16T00:17:36.435Z,19.2
2018-06-16T00:18:46.146Z,19.23
2018-06-16T00:19:56.103Z,19.19
2018-06-16T00:21:06.079Z,19.17
2018-06-16T00:22:16.040Z,19.2
2018-06-16T00:23:25.998Z,19.17
2018-06-16T00:24:35.972Z,19.2
2018-06-16T00:25:45.945Z,19.22
2018-06-16T00:26:55.399Z,19.22
2018-06-16T00:28:04.857Z,19.16
2018-06-16T00:29:14.832Z,19.16
2018-06-16T00:30:24.294Z,19.17
2018-06-16T00:31:34.268Z,19.16
2018-06-16T00:32:44.231Z,19.15
2018-06-16T00:33:54.198Z,19.19
2018-06-16T00:35:04.172Z,19.12
2018-06-16T00:36:14.131Z,19.08
2018-06-16T00:37:23.850Z,19.05
2018-06-16T00:38:33.306Z,19.08
2018-06-16T00:39:43.286Z,19.11
2018-06-16T00:40:53.255Z,19.05
2018-06-16T00:42:02.970Z,19.11
2018-06-16T00:43:12.425Z,19.08
2018-06-16T00:44:22.498Z,19.11
2018-06-16T00:45:32.198Z,19.12
2018-06-16T00:46:41.650Z,19.11
2018-06-16T00:47:51.612Z,19.09
2018-06-16T00:49:01.581Z,19.05
2018-06-16T00:50:11.552Z,19.11
2018-06-16T00:51:21.512Z,19.09
2018-06-16T00:52:31.243Z,19.19
2018-06-16T00:53:41.208Z,19.17
2018-06-16T00:54:50.962Z,19.19
2018-06-16T00:56:00.924Z,19.24
2018-06-16T00:57:10.901Z,19.22
2018-06-16T00:58:20.866Z,19.16
2018-06-16T00:59:30.847Z,19.19
2018-06-16T01:00:40.825Z,19.23
2018-06-16T01:01:50.805Z,19.19
2018-06-16T01:03:00.782Z,19.07
2018-06-16T01:04:10.501Z,19.07
2018-06-16T01:05:20.464Z,19.08
2018-06-16T01:06:30.442Z,19.07
2018-06-16T01:07:40.419Z,19.2
2018-06-16T01:08:50.140Z,19.16
2018-06-16T01:10:00.112Z,19.11
2018-06-16T01:11:09.571Z,19.24
2018-06-16T01:12:19.541Z,19.24
2018-06-16T01:13:29.512Z,19.29
2018-06-16T01:14:39.483Z,19.27
2018-06-16T01:15:49.187Z,19.26
2018-06-16T01:16:59.156Z,19.38
2018-06-16T01:18:09.144Z,19.29
2018-06-16T01:19:19.116Z,19.3
2018-06-16T01:20:29.093Z,19.38
2018-06-16T01:21:39.051Z,19.29
2018-06-16T01:22:48.771Z,19.34
2018-06-16T01:23:58.509Z,19.39
2018-06-16T01:25:08.477Z,19.37
2018-06-16T01:26:18.173Z,19.42
2018-06-16T01:27:27.889Z,19.3
2018-06-16T01:28:37.850Z,19.39
2018-06-16T01:29:47.825Z,19.35
2018-06-16T01:30:57.797Z,19.3
2018-06-16T01:32:07.764Z,19.3
2018-06-16T01:33:17.756Z,19.32
2018-06-16T01:34:27.721Z,19.32
2018-06-16T01:35:37.683Z,19.34
2018-06-16T01:36:47.664Z,19.37
2018-06-16T01:37:57.655Z,19.35
2018-06-16T01:39:07.622Z,19.32
2018-06-16T01:40:17.649Z,19.35
2018-06-16T01:41:27.360Z,19.41
2018-06-16T01:42:37.329Z,19.26
2018-06-16T01:43:47.033Z,19.32
2018-06-16T01:44:56.998Z,19.29
2018-06-16T01:46:06.978Z,19.3
2018-06-16T01:47:16.695Z,19.34
2018-06-16T01:48:26.414Z,19.27
2018-06-16T01:49:36.123Z,19.24
2018-06-16T01:50:45.840Z,19.24
2018-06-16T01:51:55.805Z,19.2
2018-06-16T01:53:05.785Z,19.12
2018-06-16T01:54:15.763Z,19.08
2018-06-16T01:55:25.497Z,18.94
2018-06-16T01:56:35.464Z,18.88
2018-06-16T01:57:45.174Z,18.81
2018-06-16T01:58:54.908Z,18.76
2018-06-16T02:00:04.886Z,18.73
2018-06-16T02:01:14.852Z,18.71
2018-06-16T02:02:24.566Z,18.71
2018-06-16T02:03:34.536Z,18.67
2018-06-16T02:04:44.500Z,18.6
2018-06-16T02:05:54.466Z,18.58
2018-06-16T02:07:04.437Z,18.48
2018-06-16T02:08:14.408Z,18.57
2018-06-16T02:09:24.111Z,18.57
2018-06-16T02:10:34.073Z,18.55
2018-06-16T02:11:43.767Z,18.48
2018-06-16T02:12:53.221Z,18.45
2018-06-16T02:14:03.184Z,18.46
2018-06-16T02:15:13.147Z,18.42
2018-06-16T02:16:23.113Z,18.41
2018-06-16T02:17:33.078Z,18.37
2018-06-16T02:18:42.526Z,18.43
2018-06-16T02:19:52.224Z,18.34
2018-06-16T02:21:02.193Z,18.36
2018-06-16T02:22:11.639Z,18.34
2018-06-16T02:23:21.610Z,18.36
2018-06-16T02:24:31.314Z,18.34
2018-06-16T02:25:41.291Z,18.37
2018-06-16T02:26:51.269Z,18.42
2018-06-16T02:28:01.251Z,18.31
2018-06-16T02:29:11.223Z,18.39
2018-06-16T02:30:20.931Z,18.41
2018-06-16T02:31:30.957Z,18.37
2018-06-16T02:32:40.949Z,18.45
2018-06-16T02:33:50.940Z,18.27
2018-06-16T02:35:00.913Z,18.31
2018-06-16T02:36:10.631Z,18.33
2018-06-16T02:37:20.343Z,18.31
2018-06-16T02:38:30.051Z,18.41
2018-06-16T02:39:40.022Z,18.37
2018-06-16T02:40:49.995Z,18.39
2018-06-16T02:41:59.728Z,18.36
2018-06-16T02:43:09.183Z,18.33
2018-06-16T02:44:19.153Z,18.37
2018-06-16T02:45:29.138Z,18.36
2018-06-16T02:46:39.108Z,18.28
2018-06-16T02:47:49.089Z,18.3
2018-06-16T02:48:59.075Z,18.45
2018-06-16T02:50:08.845Z,18.41
2018-06-16T02:51:18.866Z,18.37
2018-06-16T02:52:28.855Z,18.48
2018-06-16T02:53:38.837Z,18.41
2018-06-16T02:54:48.855Z,18.36
2018-06-16T02:55:58.821Z,18.41
2018-06-16T02:57:08.532Z,18.3
2018-06-16T02:58:18.510Z,18.39
2018-06-16T02:59:28.501Z,18.37
2018-06-16T03:00:38.471Z,18.36
2018-06-16T03:01:48.445Z,18.41
2018-06-16T03:02:58.151Z,18.46
2018-06-16T03:04:07.932Z,18.45
2018-06-16T03:05:17.658Z,18.41
2018-06-16T03:06:27.642Z,18.24
2018-06-16T03:07:37.619Z,18.36
2018-06-16T03:08:47.600Z,18.39
2018-06-16T03:09:57.317Z,18.49
2018-06-16T03:11:07.041Z,18.45
2018-06-16T03:12:16.771Z,18.37
2018-06-16T03:13:26.480Z,18.39
2018-06-16T03:14:36.445Z,18.36
2018-06-16T03:15:46.437Z,18.39
2018-06-16T03:16:56.421Z,18.39
2018-06-16T03:18:06.402Z,18.42
2018-06-16T03:19:16.365Z,18.39
2018-06-16T03:20:26.363Z,18.37
2018-06-16T03:21:36.074Z,18.39
2018-06-16T03:22:46.048Z,18.39
2018-06-16T03:23:56.021Z,18.37
2018-06-16T03:25:05.993Z,18.41
2018-06-16T03:26:15.706Z,18.41
2018-06-16T03:27:25.412Z,18.33
2018-06-16T03:28:35.386Z,18.3
2018-06-16T03:29:45.106Z,18.41
2018-06-16T03:30:55.075Z,18.36
2018-06-16T03:32:04.813Z,18.49
2018-06-16T03:33:14.267Z,18.43
2018-06-16T03:34:24.233Z,18.41
2018-06-16T03:35:34.191Z,18.48
2018-06-16T03:36:44.152Z,18.55
2018-06-16T03:37:54.115Z,18.57
2018-06-16T03:39:03.557Z,18.6
2018-06-16T03:40:13.005Z,18.63
2018-06-16T03:41:22.975Z,18.6
2018-06-16T03:42:32.934Z,18.73
2018-06-16T03:43:42.382Z,18.78
2018-06-16T03:44:51.841Z,18.71
2018-06-16T03:46:01.809Z,18.78
2018-06-16T03:47:11.793Z,18.71
2018-06-16T03:48:21.526Z,18.76
2018-06-16T03:49:31.514Z,18.71
2018-06-16T03:50:41.221Z,18.73
2018-06-16T03:51:51.201Z,18.73
2018-06-16T03:53:00.911Z,18.76
2018-06-16T03:54:10.877Z,18.76
2018-06-16T03:55:20.851Z,18.76
2018-06-16T03:56:30.814Z,18.73
2018-06-16T03:57:40.280Z,18.74
2018-06-16T03:58:50.268Z,18.73
2018-06-16T04:00:00.244Z,18.68
2018-06-16T04:01:10.220Z,18.73
2018-06-16T04:02:19.926Z,18.57
2018-06-16T04:03:29.895Z,18.55
2018-06-16T04:04:39.852Z,18.55
2018-06-16T04:05:49.819Z,18.6
2018-06-16T04:06:59.790Z,18.55
2018-06-16T04:08:09.770Z,18.6
2018-06-16T04:09:19.738Z,18.53
2018-06-16T04:10:29.709Z,18.58
2018-06-16T04:11:39.694Z,18.57
2018-06-16T04:12:49.658Z,18.64
2018-06-16T04:13:59.360Z,18.58
2018-06-16T04:15:09.343Z,18.68
2018-06-16T04:16:19.303Z,18.78
2018-06-16T04:17:28.770Z,18.76
2018-06-16T04:18:38.738Z,18.81
2018-06-16T04:19:48.709Z,18.73
2018-06-16T04:20:58.708Z,18.86
2018-06-16T04:22:08.413Z,18.91
2018-06-16T04:23:18.377Z,18.92
2018-06-16T04:24:28.355Z,18.86
2018-06-16T04:25:38.323Z,18.83
2018-06-16T04:26:48.300Z,18.94
2018-06-16T04:27:58.279Z,18.92
2018-06-16T04:29:08.244Z,18.96
2018-06-16T04:30:17.952Z,19.07
2018-06-16T04:31:27.692Z,19
2018-06-16T04:32:37.407Z,19.22
2018-06-16T04:33:47.117Z,19.3
2018-06-16T04:34:57.394Z,19.3
2018-06-16T04:36:07.362Z,19.34
2018-06-16T04:37:17.086Z,19.48
2018-06-16T04:38:26.801Z,19.49
2018-06-16T04:39:36.767Z,19.56
2018-06-16T04:40:46.741Z,19.62
2018-06-16T04:41:56.690Z,19.63
2018-06-16T04:43:06.669Z,19.63
2018-06-16T04:44:16.374Z,19.66
2018-06-16T04:45:25.832Z,19.74
2018-06-16T04:46:35.948Z,19.7
2018-06-16T04:47:45.919Z,19.74
2018-06-16T04:48:55.886Z,19.7
2018-06-16T04:50:05.603Z,19.72
2018-06-16T04:51:15.584Z,19.82
2018-06-16T04:52:25.541Z,19.79
2018-06-16T04:53:35.514Z,19.78
2018-06-16T04:54:45.485Z,19.85
2018-06-16T04:55:55.204Z,19.87
2018-06-16T04:57:05.438Z,19.87
2018-06-16T04:58:15.124Z,19.97
2018-06-16T04:59:24.832Z,19.99
2018-06-16T05:00:34.801Z,20.08
2018-06-16T05:01:44.514Z,20.12
2018-06-16T05:02:54.248Z,20.12
2018-06-16T05:04:04.228Z,20.18
2018-06-16T05:05:14.202Z,20.24
2018-06-16T05:06:23.919Z,20.27
2018-06-16T05:07:33.896Z,20.37
2018-06-16T05:08:44.029Z,20.27
2018-06-16T05:09:53.751Z,20.5
2018-06-16T05:11:03.719Z,20.5
2018-06-16T05:12:13.680Z,20.53
2018-06-16T05:13:23.383Z,20.53
2018-06-16T05:14:33.337Z,20.67
2018-06-16T05:15:43.302Z,20.59
2018-06-16T05:16:53.310Z,20.74
2018-06-16T05:18:03.444Z,20.78
2018-06-16T05:19:13.433Z,20.82
2018-06-16T05:20:23.145Z,20.86
2018-06-16T05:21:33.120Z,20.96
2018-06-16T05:22:43.094Z,20.9
2018-06-16T05:23:53.089Z,20.98
2018-06-16T05:25:03.089Z,20.92
2018-06-16T05:26:12.808Z,20.98
2018-06-16T05:27:22.771Z,21.07
2018-06-16T05:28:32.739Z,21.14
2018-06-16T05:29:42.439Z,21.2
2018-06-16T05:30:52.441Z,21.17
2018-06-16T05:32:02.411Z,21.17
2018-06-16T05:33:12.136Z,21.13
2018-06-16T05:34:21.864Z,21.17
2018-06-16T05:35:31.826Z,21.14
2018-06-16T05:36:41.792Z,21.11
2018-06-16T05:37:51.500Z,21.01
2018-06-16T05:39:01.472Z,21.11
2018-06-16T05:40:11.449Z,21.15
2018-06-16T05:41:21.434Z,21.2
2018-06-16T05:42:31.413Z,21.25
2018-06-16T05:43:41.128Z,21.2
2018-06-16T05:44:51.106Z,21.35
2018-06-16T05:46:00.557Z,21.41
2018-06-16T05:47:10.525Z,21.47
2018-06-16T05:48:20.247Z,21.43
2018-06-16T05:49:30.221Z,21.4
2018-06-16T05:50:40.204Z,21.41
2018-06-16T05:51:50.179Z,21.4
2018-06-16T05:53:00.150Z,21.43
2018-06-16T05:54:10.258Z,21.43
2018-06-16T05:55:20.226Z,21.44
2018-06-16T05:56:30.203Z,21.5
2018-06-16T05:57:40.169Z,21.56
2018-06-16T05:58:49.620Z,21.6
2018-06-16T05:59:59.603Z,21.59
2018-06-16T06:01:09.596Z,21.68
2018-06-16T06:02:19.312Z,21.66
2018-06-16T06:03:29.276Z,21.51
2018-06-16T06:04:39.263Z,21.28
2018-06-16T06:05:49.238Z,21.28
2018-06-16T06:06:59.219Z,21.15
2018-06-16T06:08:09.202Z,21.14
2018-06-16T06:09:19.167Z,21.17
2018-06-16T06:10:29.294Z,21.07
2018-06-16T06:11:39.439Z,21.03
2018-06-16T06:12:49.153Z,21.08
2018-06-16T06:13:59.125Z,21.03
2018-06-16T06:15:09.122Z,21.05
2018-06-16T06:16:18.840Z,21.07
2018-06-16T06:17:28.806Z,21.08
2018-06-16T06:18:38.519Z,21.11
2018-06-16T06:19:48.246Z,21.01
2018-06-16T06:20:57.964Z,21.13
2018-06-16T06:22:07.928Z,21.04
2018-06-16T06:23:17.894Z,21.17
2018-06-16T06:24:27.604Z,21.17
2018-06-16T06:25:37.350Z,21.11
2018-06-16T06:26:47.333Z,21.22
2018-06-16T06:27:56.784Z,21.28
2018-06-16T06:29:06.750Z,21.38
2018-06-16T06:30:16.215Z,21.38
2018-06-16T06:31:26.244Z,21.4
2018-06-16T06:32:36.224Z,21.48
2018-06-16T06:33:46.202Z,21.48
2018-06-16T06:34:56.188Z,21.5
2018-06-16T06:36:06.191Z,21.6
2018-06-16T06:37:16.333Z,21.53
2018-06-16T06:38:26.126Z,21.6
2018-06-16T06:39:35.840Z,21.6
2018-06-16T06:40:45.817Z,21.68
2018-06-16T06:41:55.787Z,21.53
2018-06-16T06:43:05.777Z,21.5
2018-06-16T06:44:15.740Z,21.66
2018-06-16T06:45:25.727Z,21.66
2018-06-16T06:46:35.712Z,21.69
2018-06-16T06:47:45.732Z,21.65
2018-06-16T06:48:55.718Z,21.66
2018-06-16T06:50:05.439Z,21.62
2018-06-16T06:51:15.405Z,21.77
2018-06-16T06:52:25.381Z,21.72
2018-06-16T06:53:35.344Z,21.85
2018-06-16T06:54:45.068Z,21.83
2018-06-16T06:55:54.777Z,22.04
2018-06-16T06:57:04.750Z,22.16
2018-06-16T06:58:14.474Z,22.15
2018-06-16T06:59:24.444Z,22.15
2018-06-16T07:00:34.436Z,22.14
2018-06-16T07:01:44.411Z,22.16
2018-06-16T07:02:54.444Z,22
2018-06-16T07:04:04.618Z,22
2018-06-16T07:05:14.416Z,22.04
2018-06-16T07:06:24.400Z,22.25
2018-06-16T07:07:34.115Z,22.22
2018-06-16T07:08:44.087Z,22.28
2018-06-16T07:09:54.065Z,22.36
2018-06-16T07:11:04.215Z,22.37
2018-06-16T07:12:14.192Z,22.41
2018-06-16T07:13:24.181Z,22.61
2018-06-16T07:14:34.159Z,22.55
2018-06-16T07:15:44.130Z,22.59
2018-06-16T07:16:53.845Z,22.56
2018-06-16T07:18:03.828Z,22.7
2018-06-16T07:19:13.803Z,22.74
2018-06-16T07:20:23.533Z,22.84
2018-06-16T07:21:33.265Z,22.95
2018-06-16T07:22:43.250Z,23.07
2018-06-16T07:23:53.243Z,23.23
2018-06-16T07:25:03.237Z,23.32
2018-06-16T07:26:13.211Z,23.28
2018-06-16T07:27:22.934Z,23.14
2018-06-16T07:28:32.914Z,23.18
2018-06-16T07:29:42.929Z,23.06
2018-06-16T07:30:52.915Z,22.96
2018-06-16T07:32:02.906Z,22.81
2018-06-16T07:33:12.873Z,22.88
2018-06-16T07:34:22.591Z,22.93
2018-06-16T07:35:32.550Z,22.83
2018-06-16T07:36:42.534Z,22.83
2018-06-16T07:37:51.997Z,22.95
2018-06-16T07:39:01.959Z,22.95
2018-06-16T07:40:12.022Z,22.91
2018-06-16T07:41:21.490Z,22.76
2018-06-16T07:42:31.692Z,22.65
2018-06-16T07:43:41.412Z,22.77
2018-06-16T07:44:51.389Z,22.88
2018-06-16T07:46:01.364Z,22.96
2018-06-16T07:47:11.356Z,23.01
2018-06-16T07:48:21.073Z,23.01
2018-06-16T07:49:30.791Z,23.04
2018-06-16T07:50:40.833Z,23.04
2018-06-16T07:51:50.548Z,23.13
2018-06-16T07:53:00.522Z,23.25
2018-06-16T07:54:10.512Z,23.29
2018-06-16T07:55:20.501Z,23.26
2018-06-16T07:56:30.490Z,23.36
2018-06-16T07:57:40.485Z,23.34
2018-06-16T07:58:50.468Z,23.45
2018-06-16T08:00:00.453Z,23.54
2018-06-16T08:01:10.197Z,23.7
2018-06-16T08:02:20.184Z,23.85
2018-06-16T08:03:29.898Z,23.86
2018-06-16T08:04:39.878Z,23.81
2018-06-16T08:05:49.865Z,23.84
2018-06-16T08:06:59.581Z,23.91
2018-06-16T08:08:09.565Z,23.88
2018-06-16T08:09:19.035Z,23.99
2018-06-16T08:10:28.756Z,24.11
2018-06-16T08:11:38.485Z,24.03
2018-06-16T08:12:48.636Z,23.91
2018-06-16T08:13:58.890Z,23.89
2018-06-16T08:15:08.871Z,23.76
2018-06-16T08:16:18.339Z,23.71
2018-06-16T08:17:28.065Z,23.88
2018-06-16T08:18:38.049Z,23.99
2018-06-16T09:10:12.163Z,26.39
2018-06-16T09:11:22.185Z,26.41
2018-06-16T09:12:32.244Z,26.44
2018-06-16T09:13:41.973Z,26.19
2018-06-16T09:14:51.949Z,26.03
2018-06-16T09:16:01.949Z,25.93
2018-06-16T09:17:11.922Z,26.03
2018-06-16T09:18:22.004Z,25.99
2018-06-16T09:19:31.974Z,25.92
2018-06-16T09:20:41.717Z,25.78
2018-06-16T09:21:51.705Z,25.76
2018-06-16T09:23:01.427Z,25.92
2018-06-16T09:24:11.435Z,26.07
2018-06-16T09:25:21.152Z,26.22
2018-06-16T09:26:31.136Z,26.06
2018-06-16T09:27:41.144Z,25.98
2018-06-16T09:28:51.136Z,26.04
2018-06-16T09:30:00.861Z,26.04
2018-06-16T09:31:10.621Z,26.06
2018-06-16T09:32:20.591Z,26.19
2018-06-16T09:33:30.333Z,26.37
2018-06-16T09:34:40.354Z,26.31
2018-06-16T09:35:50.072Z,26.55
2018-06-16T09:37:00.059Z,26.68
2018-06-16T09:38:09.796Z,26.85
2018-06-16T09:39:19.786Z,26.78
2018-06-16T09:40:29.768Z,26.66
2018-06-16T09:41:39.755Z,26.66
2018-06-16T09:42:49.741Z,26.85
2018-06-16T09:43:59.470Z,27.08
2018-06-16T09:45:08.933Z,26.96
2018-06-16T09:46:18.949Z,26.73
2018-06-16T09:47:28.939Z,26.44
2018-06-16T09:48:38.656Z,26.31
2018-06-16T09:49:48.661Z,26.22
2018-06-16T09:50:58.398Z,26.34
2018-06-16T09:52:08.383Z,26.34
2018-06-16T09:53:18.362Z,26.66
2018-06-16T09:54:28.351Z,26.79
2018-06-16T09:55:38.349Z,26.66
2018-06-16T09:56:48.084Z,26.7
2018-06-16T09:57:57.802Z,26.86
2018-06-16T09:59:07.782Z,26.96
2018-06-16T10:00:17.807Z,27.4
2018-06-16T10:01:27.813Z,27.75
2018-06-16T10:02:37.797Z,27.94
2018-06-16T10:03:47.781Z,27.75
2018-06-16T10:04:57.517Z,27.75
2018-06-16T10:06:07.248Z,27.73
2018-06-16T10:07:16.983Z,27.81
2018-06-16T10:08:26.969Z,27.58
2018-06-16T10:09:36.697Z,27.55
2018-06-16T10:10:46.425Z,27.76
2018-06-16T10:11:56.410Z,27.52
2018-06-16T10:13:06.125Z,27.26
2018-06-16T10:14:15.580Z,27.04
2018-06-16T10:15:25.572Z,26.88
2018-06-16T10:16:35.594Z,26.61
2018-06-16T10:17:45.587Z,26.66
2018-06-16T10:18:55.571Z,26.81
2018-06-16T10:20:05.289Z,27.15
2018-06-16T10:21:15.386Z,27.5
2018-06-16T10:22:25.500Z,27.37
2018-06-16T10:23:35.501Z,27.22
2018-06-16T10:24:45.505Z,27.18
2018-06-16T10:25:55.497Z,27.28
2018-06-16T10:27:05.232Z,27.43
2018-06-16T10:28:15.223Z,27.68
2018-06-16T10:29:25.205Z,27.83
2018-06-16T10:30:35.180Z,27.55
2018-06-16T10:31:45.168Z,27.73
2018-06-16T10:32:55.172Z,27.73
2018-06-16T10:34:05.171Z,27.55
2018-06-16T10:35:14.890Z,27.5
2018-06-16T10:36:25.041Z,27.61
2018-06-16T10:37:34.877Z,27.9
2018-06-16T10:38:44.607Z,27.97
2018-06-16T10:39:54.592Z,28.12
2018-06-16T10:41:04.577Z,28.06
2018-06-16T10:42:14.562Z,27.75
2018-06-16T10:43:24.545Z,27.57
2018-06-16T10:44:34.272Z,27.5
2018-06-16T10:45:44.253Z,27.47
2018-06-16T10:46:54.247Z,27.72
2018-06-16T10:48:04.232Z,27.75
2018-06-16T10:49:14.221Z,27.78
2018-06-16T10:50:23.970Z,27.73
2018-06-16T10:51:33.964Z,27.86
2018-06-16T10:52:43.946Z,27.82
2018-06-16T10:53:53.954Z,27.9
2018-06-16T10:55:03.696Z,27.91
2018-06-16T10:56:13.676Z,27.97
2018-06-16T10:57:23.667Z,27.88
2018-06-16T10:58:33.644Z,27.76
2018-06-16T10:59:43.640Z,28.01
2018-06-16T11:00:53.624Z,28.46
2018-06-16T11:02:03.676Z,28.97
2018-06-16T11:03:13.659Z,29.4
2018-06-16T11:04:23.366Z,29.83
2018-06-16T11:05:33.096Z,30.01
2018-06-16T11:06:43.098Z,29.42
2018-06-16T11:07:52.855Z,28.9
2018-06-16T11:09:02.334Z,28.71
2018-06-16T11:10:12.066Z,28.43
2018-06-16T11:11:21.790Z,28.31
2018-06-16T11:12:31.788Z,28.16
2018-06-16T11:13:41.516Z,28.1
2018-06-16T11:14:51.242Z,28.43
2018-06-16T11:16:01.246Z,28.78
2018-06-16T11:17:11.242Z,28.94
2018-06-16T11:18:21.246Z,28.77
2018-06-16T11:19:31.233Z,28.64
2018-06-16T11:20:41.209Z,28.37
2018-06-16T11:21:50.694Z,28.35
2018-06-16T11:23:00.680Z,28.3
2018-06-16T11:24:10.670Z,28.47
2018-06-16T11:25:20.138Z,28.67
2018-06-16T11:26:30.130Z,29
2018-06-16T11:27:39.872Z,29.15
2018-06-16T11:28:49.599Z,29.05
2018-06-16T11:29:59.316Z,28.62
2018-06-16T11:31:09.308Z,28.38
2018-06-16T11:32:19.033Z,28.06
2018-06-16T11:33:29.015Z,27.82
2018-06-16T11:34:39.009Z,27.75
2018-06-16T11:35:48.744Z,27.67
2018-06-16T11:36:58.472Z,27.57
2018-06-16T11:38:08.188Z,27.55
2018-06-16T11:39:17.666Z,27.52
2018-06-16T11:40:27.647Z,27.57
2018-06-16T11:41:37.378Z,27.37
2018-06-16T11:42:47.367Z,27.4
2018-06-16T11:43:57.357Z,27.28
2018-06-16T11:45:07.114Z,27.35
2018-06-16T11:46:16.845Z,27.53
2018-06-16T11:47:26.832Z,27.55
2018-06-16T11:48:36.876Z,27.53
2018-06-16T11:49:46.980Z,27.47
2018-06-16T11:50:56.713Z,27.34
2018-06-16T11:52:06.172Z,27.19
2018-06-16T11:53:16.167Z,27.2
2018-06-16T11:54:25.884Z,27.07
2018-06-16T11:55:35.887Z,27.22
2018-06-16T11:56:45.365Z,27.2
2018-06-16T11:57:55.364Z,27.63
2018-06-16T11:59:05.344Z,27.75
2018-06-16T12:00:15.087Z,27.79
2018-06-16T12:01:25.072Z,27.9
2018-06-16T12:02:35.052Z,28.19
2018-06-16T12:03:45.033Z,28.33
2018-06-16T12:04:54.765Z,28.23
2018-06-16T12:06:04.770Z,28.15
2018-06-16T12:07:14.493Z,28.16
2018-06-16T12:08:24.214Z,28.15
2018-06-16T12:09:34.214Z,28.23
2018-06-16T12:10:44.215Z,28.43
2018-06-16T12:11:53.953Z,28.86
2018-06-16T12:13:04.156Z,29.09
2018-06-16T12:14:14.143Z,29.1
2018-06-16T12:15:23.876Z,29.47
2018-06-16T12:16:33.621Z,29.77
2018-06-16T12:17:43.606Z,30.43
2018-06-16T12:18:53.587Z,30.78
2018-06-16T12:20:03.576Z,30.88
2018-06-16T12:21:13.567Z,30.86
2018-06-16T12:22:23.310Z,30.2
2018-06-16T12:23:33.303Z,30.11
2018-06-16T12:24:43.341Z,30.17
2018-06-16T12:25:53.331Z,29.9
2018-06-16T12:27:03.329Z,29.68
2018-06-16T12:28:13.315Z,29.73
2018-06-16T12:29:23.286Z,29.69
2018-06-16T12:30:33.260Z,29.96
2018-06-16T12:31:42.747Z,30.24
2018-06-16T12:32:52.749Z,30.65
2018-06-16T12:34:02.483Z,30.65
2018-06-16T12:35:12.215Z,30.24
2018-06-16T12:36:22.199Z,30.11
2018-06-16T12:37:31.955Z,30.06
2018-06-16T12:38:41.678Z,29.83
2018-06-16T12:39:51.664Z,29.64
2018-06-16T12:41:01.648Z,29.67
2018-06-16T12:42:11.647Z,29.59
2018-06-16T12:43:21.128Z,29.65
2018-06-16T12:44:30.940Z,29.44
2018-06-16T12:45:41.018Z,29.32
2018-06-16T12:46:50.748Z,29.42
2018-06-16T12:48:00.482Z,29.22
2018-06-16T12:49:10.489Z,29.39
2018-06-16T12:50:20.482Z,29.32
2018-06-16T12:51:30.463Z,29.76
2018-06-16T12:52:40.193Z,30.11
2018-06-16T12:53:50.190Z,30.03
2018-06-16T12:55:00.292Z,29.94
2018-06-16T12:56:10.336Z,29.92
2018-06-16T12:57:20.499Z,30.4
2018-06-16T12:58:30.588Z,30.46
2018-06-16T12:59:40.566Z,30.44
2018-06-16T13:00:50.287Z,29.74
2018-06-16T13:02:00.265Z,29.27
2018-06-16T13:03:09.747Z,29.03
2018-06-16T13:04:19.723Z,29.05
2018-06-16T13:05:29.726Z,28.84
2018-06-16T13:06:39.733Z,28.83
2018-06-16T13:07:49.723Z,28.8
2018-06-16T13:08:59.465Z,28.94
2018-06-16T13:10:09.438Z,29.1
2018-06-16T13:11:19.421Z,28.97
2018-06-16T13:12:29.153Z,28.94
2018-06-16T13:13:39.139Z,28.75
2018-06-16T13:14:49.125Z,28.82
2018-06-16T13:15:58.847Z,28.6
2018-06-16T13:17:08.900Z,28.5
2018-06-16T13:18:19.019Z,28.57
2018-06-16T13:19:29.060Z,28.52
2018-06-16T13:20:38.795Z,28.03
2018-06-16T13:21:48.510Z,27.88
2018-06-16T13:22:58.231Z,27.76
2018-06-16T13:24:07.946Z,27.79
2018-06-16T13:25:17.914Z,27.73
2018-06-16T13:26:27.641Z,27.78
2018-06-16T13:27:37.357Z,27.76
2018-06-16T13:28:47.070Z,27.73
2018-06-16T13:29:57.043Z,28.01
2018-06-16T13:31:06.780Z,28.12
2018-06-16T13:32:16.243Z,28.33
2018-06-16T13:33:25.965Z,28.33
2018-06-16T13:34:35.696Z,28.22
2018-06-16T13:35:45.672Z,28.19
2018-06-16T13:36:55.410Z,27.95
2018-06-16T13:38:05.392Z,27.9
2018-06-16T13:39:15.150Z,27.75
2018-06-16T13:40:25.119Z,27.83
2018-06-16T13:41:34.850Z,27.82
2018-06-16T13:42:44.563Z,27.83
2018-06-16T13:43:54.278Z,27.86
2018-06-16T13:45:04.010Z,28.06
2018-06-16T13:46:13.993Z,28.13
2018-06-16T13:47:23.977Z,28.31
2018-06-16T13:48:33.954Z,28.47
2018-06-16T13:49:43.666Z,28.47
2018-06-16T13:50:53.513Z,28.6
2018-06-16T13:52:03.775Z,28.77
2018-06-16T13:53:13.497Z,28.8
2018-06-16T13:54:23.226Z,28.71
2018-06-16T13:55:32.686Z,28.78
2018-06-16T13:56:42.797Z,28.72
2018-06-16T13:57:53.120Z,28.94
2018-06-16T13:59:02.842Z,29.13
2018-06-16T14:00:12.565Z,29.18
2018-06-16T14:01:22.550Z,29.13
2018-06-16T14:02:32.279Z,28.84
2018-06-16T14:03:42.303Z,28.84
2018-06-16T14:04:52.028Z,28.87
2018-06-16T14:06:02.001Z,28.92
2018-06-16T14:07:11.775Z,28.78
2018-06-16T14:08:21.763Z,28.7
2018-06-16T14:09:31.739Z,28.77
2018-06-16T14:10:41.458Z,28.75
2018-06-16T14:11:51.184Z,28.72
2018-06-16T14:13:01.160Z,28.5
2018-06-16T14:14:11.154Z,28.47
2018-06-16T14:15:21.117Z,28.45
2018-06-16T14:16:31.106Z,28.47
2018-06-16T14:17:40.816Z,28.2
2018-06-16T14:18:50.275Z,28.1
2018-06-16T14:20:00.261Z,28.18
2018-06-16T14:21:09.225Z,28.13
2018-06-16T14:22:19.217Z,28.16
2018-06-16T14:23:29.220Z,28.19
2018-06-16T14:24:39.201Z,27.97
2018-06-16T14:25:49.417Z,27.9
2018-06-16T14:26:59.592Z,27.9
2018-06-16T14:28:09.066Z,27.76
2018-06-16T14:29:19.064Z,27.75
2018-06-16T14:30:28.549Z,27.58
2018-06-16T14:31:38.542Z,27.73
2018-06-16T14:32:48.514Z,27.78
2018-06-16T14:33:58.227Z,27.73
2018-06-16T14:35:07.943Z,27.78
2018-06-16T14:36:17.656Z,27.88
2018-06-16T14:37:27.659Z,28.01
2018-06-16T14:38:37.374Z,28.15
2018-06-16T14:39:47.094Z,28.27
2018-06-16T14:40:57.104Z,28.34
2018-06-16T14:42:07.097Z,28.52
2018-06-16T14:43:17.093Z,28.37
2018-06-16T14:44:27.080Z,28.43
2018-06-16T14:45:37.052Z,28.52
2018-06-16T14:46:47.026Z,28.34
2018-06-16T14:47:56.990Z,28.08
2018-06-16T14:49:06.966Z,27.95
2018-06-16T14:50:16.946Z,28.06
2018-06-16T14:51:26.935Z,27.94
2018-06-16T14:52:36.657Z,27.63
2018-06-16T14:53:46.639Z,27.52
2018-06-16T14:54:56.627Z,27.47
2018-06-16T14:56:06.735Z,27.41
2018-06-16T14:57:16.732Z,27.48
2018-06-16T14:58:26.716Z,27.43
2018-06-16T14:59:36.790Z,27.47
2018-06-16T15:00:47.130Z,27.5
2018-06-16T15:01:57.107Z,27.43
2018-06-16T15:03:06.827Z,27.43
2018-06-16T15:04:16.664Z,27.41
2018-06-16T15:05:26.494Z,27.43
2018-06-16T15:06:36.498Z,27.47
2018-06-16T15:07:46.468Z,27.45
2018-06-16T15:08:56.197Z,27.6
2018-06-16T15:10:06.189Z,27.63
2018-06-16T15:11:15.406Z,27.67
2018-06-16T15:12:25.393Z,27.75
2018-06-16T15:13:35.367Z,27.78
2018-06-16T15:14:45.380Z,27.72
2018-06-16T15:15:55.136Z,27.75
2018-06-16T15:17:05.181Z,27.72
2018-06-16T15:18:15.165Z,27.71
2018-06-16T15:19:24.892Z,27.61
2018-06-16T15:20:34.887Z,27.53
2018-06-16T15:21:44.865Z,27.63
2018-06-16T15:22:54.846Z,27.57
2018-06-16T15:24:04.845Z,27.6
2018-06-16T15:25:14.564Z,27.48
2018-06-16T15:26:24.548Z,27.5
2018-06-16T15:27:34.270Z,27.43
2018-06-16T15:28:44.246Z,27.33
2018-06-16T15:29:54.214Z,27.23
2018-06-16T15:31:04.196Z,27.22
2018-06-16T15:32:14.171Z,27.26
2018-06-16T15:33:24.145Z,27.34
2018-06-16T15:34:34.128Z,27.41
2018-06-16T15:35:44.113Z,27.28
2018-06-16T15:36:54.093Z,27.19
2018-06-16T15:38:04.064Z,27.19
2018-06-16T15:39:13.529Z,27.4
2018-06-16T15:40:23.504Z,27.52
2018-06-16T15:41:33.499Z,27.68
2018-06-16T15:42:43.481Z,27.78
2018-06-16T15:43:53.472Z,27.81
2018-06-16T15:45:03.220Z,28
2018-06-16T15:46:13.218Z,28.13
2018-06-16T15:47:22.933Z,28.23
2018-06-16T15:48:32.923Z,28.15
2018-06-16T15:49:42.627Z,28.03
2018-06-16T15:50:52.360Z,27.94
2018-06-16T15:52:02.077Z,27.98
2018-06-16T15:53:12.050Z,28.04